createdAt,value
2023-05-06T00:04:32.815Z,10.93
2023-05-06T00:09:35.193Z,7.93
2023-05-06T00:14:36.903Z,8.70
2023-05-06T00:19:40.406Z,7.60
2023-05-06T00:24:42.544Z,6.60
2023-05-06T00:29:44.655Z,9.23
2023-05-06T00:34:48.174Z,5.87
2023-05-06T00:39:50.291Z,10.20
2023-05-06T00:44:52.971Z,6.77
2023-05-06T00:49:56.748Z,7.23
2023-05-06T00:54:58.918Z,10.60
2023-05-06T01:00:00.902Z,8.30
2023-05-06T01:05:05.006Z,7.47
2023-05-06T01:10:13.661Z,12.20
2023-05-06T01:15:20.486Z,9.00
2023-05-06T01:20:25.318Z,9.47
2023-05-06T01:25:28.744Z,7.53
2023-05-06T01:30:51.602Z,8.40
2023-05-06T01:36:02.030Z,7.43
2023-05-06T01:41:06.292Z,8.07
2023-05-06T01:46:12.712Z,7.07
2023-05-06T01:51:14.723Z,7.47
2023-05-06T01:56:18.292Z,5.57
2023-05-06T02:01:20.801Z,8.47
2023-05-06T02:06:23.053Z,11.37
2023-05-06T02:11:26.260Z,7.20
2023-05-06T02:16:28.110Z,7.43
2023-05-06T02:21:30.341Z,8.70
2023-05-06T02:26:34.787Z,8.87
2023-05-06T02:31:36.986Z,7.30
2023-05-06T02:36:39.163Z,11.97
2023-05-06T02:41:42.786Z,6.53
2023-05-06T02:46:44.482Z,10.10
2023-05-06T02:51:46.637Z,7.80
2023-05-06T02:56:49.724Z,6.37
2023-05-06T03:01:51.947Z,8.67
2023-05-06T03:06:54.079Z,10.23
2023-05-06T03:11:57.854Z,8.83
2023-05-06T03:17:00.068Z,8.97
2023-05-06T03:22:02.601Z,10.60
2023-05-06T03:27:06.088Z,6.80
2023-05-06T03:32:08.206Z,9.67
2023-05-06T03:37:10.434Z,8.00
2023-05-06T03:42:14.056Z,10.17
2023-05-06T03:47:16.022Z,8.50
2023-05-06T03:52:18.715Z,10.50
2023-05-06T03:57:22.159Z,8.27
2023-05-06T04:02:24.661Z,7.97
2023-05-06T04:07:26.757Z,8.27
2023-05-06T04:12:30.251Z,9.33
2023-05-06T04:17:32.557Z,8.57
2023-05-06T04:22:34.714Z,8.20
2023-05-06T04:27:37.878Z,7.53
2023-05-06T04:32:40.205Z,7.80
2023-05-06T04:37:42.371Z,12.23
2023-05-06T04:42:45.926Z,8.73
2023-05-06T04:47:47.921Z,7.37
2023-05-06T04:52:49.899Z,10.87
2023-05-06T04:57:53.040Z,9.97
2023-05-06T05:02:55.370Z,8.53
2023-05-06T05:07:57.085Z,8.60
2023-05-06T05:13:00.511Z,7.90
2023-05-06T05:18:02.680Z,10.43
2023-05-06T05:23:04.805Z,8.17
2023-05-06T05:28:08.251Z,9.90
2023-05-06T05:33:10.463Z,10.37
2023-05-06T05:38:12.971Z,7.73
2023-05-06T05:43:16.034Z,13.43
2023-05-06T05:48:18.134Z,8.27
2023-05-06T05:53:20.197Z,8.67
2023-05-06T05:58:23.385Z,10.37
2023-05-06T06:03:26.079Z,7.40
2023-05-06T06:08:28.180Z,7.23
2023-05-06T06:13:32.087Z,8.30
2023-05-06T06:18:34.431Z,7.87
2023-05-06T06:23:36.623Z,8.03
2023-05-06T06:28:39.994Z,10.33
2023-05-06T06:33:42.109Z,7.80
2023-05-06T06:38:45.431Z,8.87
2023-05-06T06:43:49.081Z,9.13
2023-05-06T06:48:50.765Z,6.97
2023-05-06T06:53:52.487Z,10.93
2023-05-06T06:58:56.043Z,9.20
2023-05-06T07:03:58.394Z,7.67
2023-05-06T07:09:00.156Z,10.93
2023-05-06T07:14:04.153Z,8.77
2023-05-06T07:19:06.321Z,7.07
2023-05-06T07:24:08.684Z,8.00
2023-05-06T07:29:11.797Z,9.63
2023-05-06T07:34:13.943Z,7.73
2023-05-06T07:39:15.746Z,9.63
2023-05-06T07:44:18.865Z,8.23
2023-05-06T07:49:20.561Z,7.43
2023-05-06T07:54:22.248Z,7.70
2023-05-06T07:59:25.405Z,9.27
2023-05-06T08:04:27.407Z,8.07
2023-05-06T08:09:29.956Z,9.67
2023-05-06T08:14:33.621Z,7.80
2023-05-06T08:19:35.668Z,10.67
2023-05-06T08:24:37.874Z,7.60
2023-05-06T08:29:41.360Z,8.17
2023-05-06T08:34:43.079Z,9.57
2023-05-06T08:39:44.929Z,7.87
2023-05-06T08:44:49.075Z,8.43
2023-05-06T08:49:51.031Z,8.87
2023-05-06T08:54:56.496Z,10.53
2023-05-06T09:00:00.545Z,10.83
2023-05-06T09:05:02.585Z,8.67
2023-05-06T09:10:07.716Z,7.90
2023-05-06T09:15:11.396Z,9.73
2023-05-06T09:20:13.639Z,7.17
2023-05-06T09:25:15.701Z,7.63
2023-05-06T09:30:18.998Z,7.20
2023-05-06T09:35:21.008Z,7.93
2023-05-06T09:40:24.369Z,6.50
2023-05-06T09:45:29.098Z,8.80
2023-05-06T09:50:32.585Z,9.73
2023-05-06T09:55:35.910Z,7.57
2023-05-06T10:00:40.246Z,6.90
2023-05-06T10:05:43.226Z,7.10
2023-05-06T10:10:45.864Z,8.00
2023-05-06T10:15:50.367Z,7.67
2023-05-06T10:20:52.601Z,10.40
2023-05-06T10:25:57.000Z,7.00
2023-05-06T10:31:04.833Z,7.30
2023-05-06T10:36:14.837Z,7.83
2023-05-06T10:41:17.764Z,6.40
2023-05-06T10:46:21.338Z,6.23
2023-05-06T10:51:27.757Z,6.37
2023-05-06T10:56:31.216Z,5.57
2023-05-06T11:01:35.000Z,6.37
2023-05-06T11:06:40.632Z,5.23
2023-05-06T11:11:59.980Z,6.23
2023-05-06T11:17:04.194Z,5.87
2023-05-06T11:22:07.251Z,5.70
2023-05-06T11:27:10.327Z,5.70
2023-05-06T11:32:22.732Z,8.73
2023-05-06T11:37:26.060Z,6.80
2023-05-06T11:42:28.797Z,7.50
2023-05-06T11:47:31.939Z,6.40
2023-05-06T11:52:35.732Z,5.93
2023-05-06T11:57:42.396Z,5.47
2023-05-06T12:02:46.093Z,5.77
2023-05-06T12:07:48.625Z,6.50
2023-05-06T12:12:51.324Z,4.80
2023-05-06T12:17:54.981Z,5.10
2023-05-06T12:23:06.207Z,6.73
2023-05-06T12:28:14.349Z,5.50
2023-05-06T12:33:17.748Z,6.50
2023-05-06T12:38:19.545Z,6.43
2023-05-06T12:43:28.865Z,6.00
2023-05-06T12:48:32.858Z,8.03
2023-05-06T12:53:35.398Z,8.43
2023-05-06T12:58:37.682Z,5.90
2023-05-06T13:03:41.227Z,5.80
2023-05-06T13:08:43.540Z,7.23
2023-05-06T13:13:45.483Z,5.20
2023-05-06T13:18:49.115Z,7.33
2023-05-06T13:23:50.975Z,4.90
2023-05-06T13:28:53.575Z,6.23
2023-05-06T13:33:57.067Z,7.90
2023-05-06T13:38:59.184Z,6.23
2023-05-06T13:44:01.569Z,5.80
2023-05-06T13:49:05.107Z,5.33
2023-05-06T13:54:06.849Z,8.37
2023-05-06T13:59:09.012Z,5.30
2023-05-06T14:04:12.604Z,6.47
2023-05-06T14:09:14.581Z,6.23
2023-05-06T14:14:16.346Z,4.80
2023-05-06T14:19:19.656Z,5.60
2023-05-06T14:24:22.305Z,7.80
2023-05-06T14:29:24.024Z,5.87
2023-05-06T14:34:27.562Z,5.23
2023-05-06T14:39:29.539Z,5.57
2023-05-06T14:44:31.237Z,7.23
2023-05-06T14:49:34.639Z,3.53
2023-05-06T14:54:36.423Z,4.20
2023-05-06T14:59:38.854Z,4.63
2023-05-06T15:04:42.189Z,5.17
2023-05-06T15:09:44.481Z,5.10
2023-05-06T15:14:46.708Z,3.53
2023-05-06T15:19:50.053Z,4.53
2023-05-06T15:24:51.804Z,3.13
2023-05-06T15:29:53.547Z,3.10
2023-05-06T15:34:56.856Z,7.17
2023-05-06T15:39:59.058Z,2.57
2023-05-06T15:45:00.847Z,4.00
2023-05-06T15:50:14.080Z,3.07
2023-05-06T15:55:25.113Z,2.97
2023-05-06T16:00:28.588Z,3.50
2023-05-06T16:05:31.685Z,2.43
2023-05-06T16:10:33.666Z,2.30
2023-05-06T16:15:35.427Z,2.77
2023-05-06T16:20:38.710Z,3.07
2023-05-06T16:25:41.107Z,3.70
2023-05-06T16:30:42.800Z,5.70
2023-05-06T16:35:47.170Z,3.10
2023-05-06T16:40:49.382Z,4.40
2023-05-06T16:45:51.379Z,3.00
2023-05-06T16:50:54.546Z,7.07
2023-05-06T16:55:56.747Z,4.13
2023-05-06T17:00:58.493Z,9.00
2023-05-06T17:06:01.871Z,4.87
2023-05-06T17:11:06.672Z,7.67
2023-05-06T17:16:08.541Z,5.13
2023-05-06T17:21:11.720Z,7.77
2023-05-06T17:26:13.650Z,4.33
2023-05-06T17:31:15.420Z,4.80
2023-05-06T17:36:19.743Z,3.83
2023-05-06T17:41:21.428Z,3.43
2023-05-06T17:46:23.140Z,4.37
2023-05-06T17:51:26.915Z,4.03
2023-05-06T17:56:28.625Z,3.43
2023-05-06T18:01:30.665Z,9.93
2023-05-06T18:06:33.847Z,2.97
2023-05-06T18:11:37.347Z,3.13
2023-05-06T18:16:39.491Z,5.03
2023-05-06T18:21:42.978Z,3.83
2023-05-06T18:26:46.103Z,3.30
2023-05-06T18:31:48.229Z,2.43
2023-05-06T18:36:51.905Z,3.13
2023-05-06T18:41:54.365Z,3.20
2023-05-06T18:46:56.741Z,4.33
2023-05-06T18:52:00.332Z,5.23
2023-05-06T18:57:02.063Z,3.10
2023-05-06T19:02:05.756Z,6.00
2023-05-06T19:07:09.558Z,3.83
2023-05-06T19:12:11.630Z,4.20
2023-05-06T19:17:13.655Z,4.67
2023-05-06T19:22:17.187Z,5.10
2023-05-06T19:27:19.308Z,5.73
2023-05-06T19:32:22.446Z,4.10
2023-05-06T19:37:25.843Z,4.53
2023-05-06T19:42:27.591Z,4.60
2023-05-06T19:47:29.744Z,6.80
2023-05-06T19:52:33.316Z,5.57
2023-05-06T19:57:35.304Z,5.17
2023-05-06T20:02:37.601Z,5.33
2023-05-06T20:07:40.866Z,5.23
2023-05-06T20:12:42.882Z,5.63
2023-05-06T20:17:44.796Z,5.17
2023-05-06T20:22:48.467Z,7.20
2023-05-06T20:27:50.158Z,6.37
2023-05-06T20:32:52.230Z,8.07
2023-05-06T20:37:55.460Z,6.50
2023-05-06T20:42:57.171Z,8.93
2023-05-06T20:47:59.062Z,8.77
2023-05-06T20:53:02.215Z,7.50
2023-05-06T20:58:04.329Z,9.30
2023-05-06T21:03:06.176Z,8.63
2023-05-06T21:08:09.560Z,8.07
2023-05-06T21:13:11.528Z,7.90
2023-05-06T21:18:13.791Z,9.07
2023-05-06T21:23:17.403Z,11.27
2023-05-06T21:28:19.312Z,14.50
2023-05-06T21:33:21.386Z,13.00
2023-05-06T21:38:25.412Z,12.37
2023-05-06T21:43:27.771Z,10.47
2023-05-06T21:48:30.337Z,12.80
2023-05-06T21:53:33.367Z,10.50
2023-05-06T21:58:35.832Z,13.90
2023-05-06T22:03:38.078Z,11.73
2023-05-06T22:08:42.053Z,13.93
2023-05-06T22:13:44.327Z,11.67
2023-05-06T22:18:46.022Z,11.53
2023-05-06T22:23:49.111Z,11.83
2023-05-06T22:28:51.052Z,11.83
2023-05-06T22:33:54.414Z,15.73
2023-05-06T22:38:57.465Z,12.90
2023-05-06T22:44:00.230Z,12.33
2023-05-06T22:49:02.301Z,15.03
2023-05-06T22:54:05.472Z,13.80
2023-05-06T22:59:07.459Z,12.90
2023-05-06T23:04:09.236Z,12.43
2023-05-06T23:09:12.304Z,12.30
2023-05-06T23:14:14.656Z,11.90
2023-05-06T23:19:16.759Z,11.90
2023-05-06T23:24:19.774Z,12.17
2023-05-06T23:29:21.863Z,12.83
2023-05-06T23:34:23.800Z,10.00
2023-05-06T23:39:26.874Z,14.57
2023-05-06T23:44:29.432Z,14.80
2023-05-06T23:49:32.228Z,13.03
2023-05-06T23:54:36.426Z,11.27
2023-05-06T23:59:38.201Z,12.30
